Time;durP1;ratioP1;P1;durP2;ratioP2;P2;SDS_P1;SDS_P2;PMS_P1;PMS_P2;Temp;Humidity;BMP_temperature;BMP_pressure;BME280_temperature;BME280_humidity;BME280_pressure;Samples;Min_cycle;Max_cycle;Signal;HPM_P1;HPM_P2
2022/06/17 00:00:50;;;;;;;9.98;7.60;;;14.10;99.90;;;;;;5017372;28;20478;-87
2022/06/17 00:03:17;;;;;;;11.93;7.72;;;14.10;99.90;;;;;;5017000;28;20173;-87
2022/06/17 00:05:42;;;;;;;9.65;8.07;;;14.10;99.90;;;;;;5017672;28;20100;-88
2022/06/17 00:08:29;;;;;;;9.25;7.90;;;14.00;99.90;;;;;;5000914;28;20046;-88
2022/06/17 00:10:55;;;;;;;10.13;8.05;;;14.00;99.90;;;;;;5015716;28;20359;-86
2022/06/17 00:13:20;;;;;;;9.48;7.68;;;14.00;99.90;;;;;;5016938;28;20073;-88
2022/06/17 00:15:47;;;;;;;9.65;7.32;;;14.00;99.90;;;;;;5016883;28;20103;-87
2022/06/17 00:18:14;;;;;;;8.05;7.30;;;14.00;99.90;;;;;;5033311;28;20520;-88
2022/06/17 00:20:39;;;;;;;11.68;7.72;;;14.00;99.90;;;;;;5017604;28;20050;-88
2022/06/17 00:23:21;;;;;;;10.82;7.95;;;14.00;99.90;;;;;;5017894;28;20123;-88
2022/06/17 00:25:47;;;;;;;11.07;8.27;;;14.00;99.90;;;;;;5016682;28;20375;-87
2022/06/17 00:28:14;;;;;;;10.27;8.20;;;13.90;99.90;;;;;;5000202;28;20124;-87
2022/06/17 00:30:40;;;;;;;9.82;7.68;;;14.00;99.90;;;;;;4968529;28;20464;-86
2022/06/17 00:33:06;;;;;;;10.35;7.68;;;13.90;99.90;;;;;;4984361;28;20147;-87
2022/06/17 00:35:39;;;;;;;9.32;7.97;;;13.90;99.90;;;;;;5000596;28;20054;-87
2022/06/17 00:38:05;;;;;;;9.03;7.30;;;13.90;99.90;;;;;;5016589;28;20050;-88
2022/06/17 00:40:33;;;;;;;9.00;7.70;;;13.80;99.90;;;;;;4968190;28;20053;-88
2022/06/17 00:43:10;;;;;;;8.27;7.38;;;13.80;99.90;;;;;;5016213;28;20054;-87
2022/06/17 00:45:48;;;;;;;8.57;7.47;;;13.80;99.90;;;;;;4985862;28;20049;-86
2022/06/17 00:48:23;;;;;;;9.20;7.68;;;13.80;99.90;;;;;;4967915;28;20060;-86
2022/06/17 00:50:58;;;;;;;9.30;7.68;;;13.80;99.90;;;;;;5017372;28;20124;-88
2022/06/17 00:53:32;;;;;;;8.80;8.00;;;13.70;99.90;;;;;;4968889;28;20521;-86
2022/06/17 00:55:59;;;;;;;;;;;13.70;99.90;;;;;;5017978;28;20089;-88
2022/06/17 00:58:34;;;;;;;8.68;7.75;;;13.70;99.90;;;;;;5015928;28;19922;-87
2022/06/17 01:01:00;;;;;;;9.32;8.23;;;13.70;99.90;;;;;;4967865;28;20042;-87
2022/06/17 01:03:32;;;;;;;11.23;8.57;;;13.60;99.90;;;;;;4982930;28;20053;-88
2022/06/17 01:06:03;;;;;;;11.48;8.38;;;13.60;99.90;;;;;;4984335;28;20086;-88
2022/06/17 01:11:18;;;;;;;11.05;8.63;;;13.70;99.90;;;;;;5020459;28;20112;-87
2022/06/17 01:13:44;;;;;;;10.27;7.75;;;13.60;99.90;;;;;;4983622;28;20416;-88
2022/06/17 01:16:10;;;;;;;11.95;8.68;;;13.60;99.90;;;;;;4983457;28;20081;-86
2022/06/17 01:18:38;;;;;;;9.88;8.27;;;13.70;99.90;;;;;;5015657;28;20512;-87
2022/06/17 01:21:21;;;;;;;9.05;7.80;;;13.60;99.90;;;;;;5016690;28;20134;-87
2022/06/17 01:23:48;;;;;;;12.32;8.65;;;13.60;99.90;;;;;;5018242;28;20060;-88
2022/06/17 01:26:15;;;;;;;11.18;8.88;;;13.70;99.90;;;;;;4983837;28;20060;-87
2022/06/17 01:28:40;;;;;;;9.13;7.97;;;13.70;99.90;;;;;;4982561;28;20057;-87
2022/06/17 01:31:06;;;;;;;9.63;8.23;;;13.70;99.90;;;;;;4983982;28;20111;-88
2022/06/17 01:33:34;;;;;;;9.88;8.88;;;13.70;99.90;;;;;;5016830;28;20085;-87
2022/06/17 01:36:14;;;;;;;9.70;8.23;;;13.70;99.90;;;;;;5016290;28;20123;-88
2022/06/17 01:38:49;;;;;;;10.57;7.68;;;13.80;99.90;;;;;;4966961;28;20398;-87
2022/06/17 01:41:15;;;;;;;11.40;9.38;;;13.70;99.90;;;;;;4968549;28;20060;-87
2022/06/17 01:43:50;;;;;;;11.65;8.13;;;13.70;99.90;;;;;;5015328;28;20092;-87
2022/06/17 01:46:18;;;;;;;9.85;7.93;;;13.70;99.90;;;;;;4967688;28;20054;-88
2022/06/17 01:48:54;;;;;;;10.88;7.82;;;13.70;99.90;;;;;;5016057;28;20050;-87
2022/06/17 01:51:20;;;;;;;13.35;8.95;;;13.70;99.90;;;;;;5016365;28;20432;-86
2022/06/17 01:53:48;;;;;;;9.95;8.15;;;13.70;99.90;;;;;;5014977;28;20125;-87
2022/06/17 01:56:15;;;;;;;12.98;9.55;;;13.60;99.90;;;;;;5015561;28;20053;-87
2022/06/17 01:58:54;;;;;;;11.38;9.45;;;13.60;99.90;;;;;;5014972;28;20050;-87
2022/06/17 02:01:21;;;;;;;12.60;9.60;;;13.60;99.90;;;;;;4982381;28;20053;-87
2022/06/17 02:03:50;;;;;;;13.80;10.13;;;13.70;99.90;;;;;;4998446;28;20049;-87
2022/06/17 02:06:23;;;;;;;12.73;10.23;;;13.70;99.90;;;;;;4999530;28;20042;-87
2022/06/17 02:08:51;;;;;;;12.10;8.07;;;13.60;99.90;;;;;;4984149;28;20056;-87
2022/06/17 02:11:17;;;;;;;9.88;8.88;;;13.60;99.90;;;;;;4983236;28;20371;-86
2022/06/17 02:13:42;;;;;;;13.70;9.68;;;13.60;99.90;;;;;;4983477;28;20081;-87
2022/06/17 02:16:08;;;;;;;9.35;8.20;;;13.60;99.90;;;;;;4999797;28;20081;-87
2022/06/17 02:18:34;;;;;;;12.25;8.88;;;13.50;99.90;;;;;;5011189;28;20046;-85
2022/06/17 02:21:02;;;;;;;11.13;8.88;;;13.50;99.90;;;;;;4987020;28;20045;-86
2022/06/17 02:23:29;;;;;;;11.50;8.48;;;13.50;99.90;;;;;;5035618;28;20161;-86
2022/06/17 02:25:55;;;;;;;12.18;9.30;;;13.40;99.90;;;;;;5035170;28;20049;-85
2022/06/17 02:28:21;;;;;;;9.18;7.97;;;13.50;99.90;;;;;;5034030;28;20181;-86
2022/06/17 02:30:48;;;;;;;11.65;9.05;;;13.40;99.90;;;;;;4969872;28;20065;-86
2022/06/17 02:33:13;;;;;;;11.13;8.88;;;13.50;99.90;;;;;;4999156;28;20397;-87
2022/06/17 02:35:46;;;;;;;11.18;8.73;;;13.40;99.90;;;;;;5015857;28;20046;-88
2022/06/17 02:38:19;;;;;;;10.82;8.55;;;13.40;99.90;;;;;;5016921;28;20081;-87
2022/06/17 02:40:47;;;;;;;12.10;9.60;;;13.40;99.90;;;;;;4980811;28;20049;-86
2022/06/17 02:43:14;;;;;;;11.30;8.65;;;13.40;99.90;;;;;;5002645;28;20038;-85
2022/06/17 02:45:43;;;;;;;11.25;8.32;;;13.40;99.90;;;;;;5033991;28;20077;-85
2022/06/17 02:48:48;;;;;;;11.30;8.88;;;13.40;99.90;;;;;;4984765;28;20057;-86
2022/06/17 02:51:13;;;;;;;9.63;8.20;;;13.40;99.90;;;;;;5002770;28;20389;-87
2022/06/17 02:53:39;;;;;;;12.52;8.85;;;13.40;99.90;;;;;;4982022;28;20041;-87
2022/06/17 02:56:14;;;;;;;11.38;9.15;;;13.40;99.90;;;;;;4981416;28;20045;-87
2022/06/17 02:58:55;;;;;;;11.05;8.98;;;13.40;99.90;;;;;;5014871;28;20052;-87
2022/06/17 03:01:25;;;;;;;11.77;8.98;;;13.40;99.90;;;;;;5015025;28;20429;-87
2022/06/17 03:03:51;;;;;;;10.25;8.45;;;13.40;99.90;;;;;;4981524;28;20120;-86
2022/06/17 03:06:29;;;;;;;11.95;9.27;;;13.40;99.90;;;;;;5014130;28;20497;-87
2022/06/17 03:08:55;;;;;;;11.55;8.75;;;13.40;99.90;;;;;;5014995;28;20054;-85
2022/06/17 03:11:21;;;;;;;13.00;9.25;;;13.40;99.90;;;;;;4981759;28;20042;-86
2022/06/17 03:14:00;;;;;;;10.48;8.55;;;13.40;99.90;;;;;;4997575;28;20130;-86
2022/06/17 03:16:26;;;;;;;11.52;9.13;;;13.50;99.90;;;;;;4965717;28;20058;-86
2022/06/17 03:18:51;;;;;;;11.38;9.18;;;13.50;99.90;;;;;;4964842;28;20056;-86
2022/06/17 03:21:20;;;;;;;10.18;8.18;;;13.50;99.90;;;;;;4997130;28;20112;-86
2022/06/17 03:23:59;;;;;;;11.38;9.43;;;13.50;99.90;;;;;;4980557;28;20041;-86
2022/06/17 03:26:27;;;;;;;11.95;9.18;;;13.50;99.90;;;;;;4997335;28;20390;-87
2022/06/17 03:28:53;;;;;;;13.35;8.95;;;13.50;99.90;;;;;;5012564;28;20409;-86
2022/06/17 03:31:30;;;;;;;11.50;8.57;;;13.60;99.90;;;;;;4997190;28;20046;-87
2022/06/17 03:34:26;;;;;;;10.77;7.85;;;13.60;99.90;;;;;;5013551;28;20048;-87
2022/06/17 03:37:10;;;;;;;10.63;8.40;;;13.60;99.90;;;;;;4975721;28;20054;-87
2022/06/17 03:39:55;;;;;;;9.55;8.18;;;13.70;99.90;;;;;;5015539;28;20046;-85
2022/06/17 03:42:24;;;;;;;12.57;8.40;;;13.90;99.90;;;;;;4983097;28;20046;-86
2022/06/17 03:44:55;;;;;;;8.95;7.25;;;14.00;99.90;;;;;;5013729;28;20049;-87
2022/06/17 03:47:22;;;;;;;12.07;6.55;;;14.20;99.90;;;;;;4964322;28;20092;-86
2022/06/17 03:49:54;;;;;;;7.05;5.88;;;14.40;99.90;;;;;;4980229;28;20053;-86
2022/06/17 03:52:41;;;;;;;7.72;5.53;;;14.60;99.90;;;;;;4980894;28;20050;-87
2022/06/17 03:55:17;;;;;;;9.10;5.80;;;14.80;99.90;;;;;;4981085;28;20042;-87
2022/06/17 03:57:44;;;;;;;8.23;5.10;;;15.00;99.90;;;;;;5013504;28;20489;-87
2022/06/17 04:00:17;;;;;;;6.93;5.10;;;15.10;99.90;;;;;;5013480;28;20508;-86
2022/06/17 04:02:43;;;;;;;7.85;5.25;;;15.20;99.90;;;;;;5013280;28;20088;-87
2022/06/17 04:05:09;;;;;;;5.93;5.05;;;15.20;99.90;;;;;;5013055;28;20077;-86
2022/06/17 04:07:35;;;;;;;6.60;4.43;;;15.40;99.90;;;;;;4980779;28;20049;-87
2022/06/17 04:10:00;;;;;;;6.82;5.32;;;15.40;99.90;;;;;;4996771;28;20042;-86
2022/06/17 04:12:27;;;;;;;7.22;4.45;;;15.50;99.90;;;;;;4980577;28;20095;-87
2022/06/17 04:15:12;;;;;;;5.18;4.68;;;15.60;99.90;;;;;;4980218;28;20050;-87
2022/06/17 04:17:43;;;;;;;5.20;4.57;;;15.60;99.90;;;;;;4996541;28;20490;-87
2022/06/17 04:20:37;;;;;;;6.07;4.45;;;15.60;99.90;;;;;;5013467;28;20049;-87
2022/06/17 04:23:05;;;;;;;;;;;15.60;99.90;;;;;;5015033;28;20085;-87
2022/06/17 04:25:54;;;;;;;5.97;4.32;;;15.70;99.90;;;;;;5012461;28;20028;-88
2022/06/17 04:28:24;;;;;;;6.70;4.57;;;15.80;99.90;;;;;;4998589;28;20046;-85
2022/06/17 04:30:55;;;;;;;5.22;4.70;;;15.90;99.90;;;;;;4964626;28;20150;-86
2022/06/17 04:33:26;;;;;;;8.57;4.70;;;16.00;99.90;;;;;;5013476;28;20478;-86
2022/06/17 04:35:59;;;;;;;9.20;5.10;;;16.00;99.90;;;;;;4964793;28;20088;-87
2022/06/17 04:38:25;;;;;;;7.07;5.10;;;16.00;99.90;;;;;;5014689;28;20045;-87
2022/06/17 04:40:54;;;;;;;7.38;5.55;;;16.00;99.90;;;;;;4984426;28;20107;-87
2022/06/17 04:43:40;;;;;;;9.90;5.47;;;16.00;99.90;;;;;;4967864;28;20095;-85
2022/06/17 04:46:08;;;;;;;10.15;5.40;;;16.00;99.90;;;;;;4983804;28;20077;-86
2022/06/17 04:48:35;;;;;;;7.97;5.25;;;16.10;99.90;;;;;;5001032;28;20458;-86
2022/06/17 04:51:01;;;;;;;9.98;5.22;;;16.20;99.90;;;;;;5016822;28;20463;-86
2022/06/17 04:53:27;;;;;;;8.75;5.22;;;16.30;99.90;;;;;;4967704;28;20409;-86
2022/06/17 04:55:53;;;;;;;7.10;5.95;;;16.40;99.90;;;;;;5016933;28;20061;-87
2022/06/17 04:58:21;;;;;;;8.32;5.28;;;16.40;99.90;;;;;;4983330;28;20045;-87
2022/06/17 05:00:48;;;;;;;7.35;5.47;;;16.40;99.90;;;;;;5000429;28;20179;-87
2022/06/17 05:03:15;;;;;;;8.73;5.22;;;16.40;99.90;;;;;;4999715;28;20500;-87
2022/06/17 05:05:42;;;;;;;10.70;5.50;;;16.30;99.90;;;;;;4967965;28;20061;-87
2022/06/17 05:08:18;;;;;;;8.32;5.80;;;16.30;99.90;;;;;;5000560;28;20056;-87
2022/06/17 05:10:46;;;;;;;9.45;6.15;;;16.30;99.90;;;;;;5016448;28;20156;-86
2022/06/17 05:13:19;;;;;;;9.93;7.00;;;16.20;99.90;;;;;;4983548;28;20413;-86
2022/06/17 05:15:44;;;;;;;8.70;5.97;;;16.30;99.90;;;;;;5015850;28;20485;-86
2022/06/17 05:18:10;;;;;;;10.38;7.25;;;16.30;99.90;;;;;;4983413;28;20053;-87
2022/06/17 05:20:35;;;;;;;7.32;6.28;;;16.30;99.90;;;;;;4983738;28;20151;-86
2022/06/17 05:23:03;;;;;;;9.02;6.50;;;16.30;99.90;;;;;;5016225;28;20425;-86
2022/06/17 05:25:32;;;;;;;13.32;6.50;;;16.40;99.90;;;;;;4967032;28;20049;-87
2022/06/17 05:27:57;;;;;;;11.07;6.80;;;16.50;99.90;;;;;;4999244;28;20064;-87
2022/06/17 05:30:23;;;;;;;7.13;6.43;;;16.50;99.90;;;;;;4982715;28;20045;-86
2022/06/17 05:32:53;;;;;;;8.27;6.70;;;16.50;99.90;;;;;;4966896;28;20082;-86
2022/06/17 05:35:19;;;;;;;9.00;6.35;;;16.50;99.90;;;;;;4983136;28;20050;-86
2022/06/17 05:37:45;;;;;;;8.10;6.93;;;16.50;99.90;;;;;;5015699;28;20613;-87
2022/06/17 05:40:11;;;;;;;9.57;6.72;;;16.50;99.90;;;;;;5015262;28;20105;-87
2022/06/17 05:42:37;;;;;;;8.98;7.03;;;16.60;99.90;;;;;;4983073;28;20046;-86
2022/06/17 05:45:03;;;;;;;11.30;6.82;;;16.60;99.90;;;;;;4982735;28;20042;-85
2022/06/17 05:47:29;;;;;;;11.45;7.00;;;16.70;99.90;;;;;;4982578;28;20042;-87
2022/06/17 05:49:55;;;;;;;11.43;6.97;;;16.70;99.90;;;;;;5014405;28;20045;-86
2022/06/17 05:52:20;;;;;;;11.15;6.80;;;16.70;99.90;;;;;;4966166;28;20227;-86
2022/06/17 05:54:46;;;;;;;9.43;6.93;;;16.80;99.90;;;;;;4965744;28;20461;-86
2022/06/17 05:57:12;;;;;;;9.73;6.50;;;16.80;99.90;;;;;;5014219;28;20136;-86
2022/06/17 05:59:38;;;;;;;8.43;6.38;;;16.90;99.90;;;;;;4998242;28;20134;-86
2022/06/17 06:02:04;;;;;;;7.20;6.28;;;16.90;99.90;;;;;;5015345;28;20082;-87
2022/06/17 06:04:31;;;;;;;10.02;7.13;;;17.00;99.90;;;;;;5015052;28;20046;-87
2022/06/17 06:06:57;;;;;;;9.65;6.30;;;17.00;99.90;;;;;;5014466;28;20046;-86
2022/06/17 06:09:23;;;;;;;11.32;6.95;;;17.10;99.90;;;;;;5014681;28;20049;-87
2022/06/17 06:11:49;;;;;;;20.98;9.75;;;17.20;99.90;;;;;;4997840;28;20049;-87
2022/06/17 06:14:14;;;;;;;15.88;8.63;;;17.30;99.90;;;;;;4981766;28;20092;-87
2022/06/17 06:16:40;;;;;;;10.25;7.18;;;17.30;99.90;;;;;;4982298;28;20050;-86
2022/06/17 06:19:05;;;;;;;12.27;8.35;;;17.40;99.90;;;;;;4997684;28;20038;-86
2022/06/17 06:21:32;;;;;;;10.70;8.52;;;17.50;99.90;;;;;;5014582;28;20058;-86
2022/06/17 06:23:57;;;;;;;10.65;7.28;;;17.60;99.90;;;;;;5015132;28;20175;-86
2022/06/17 06:26:23;;;;;;;10.23;7.75;;;17.60;99.90;;;;;;5015598;28;20092;-86
2022/06/17 06:28:49;;;;;;;13.77;8.13;;;17.60;99.90;;;;;;4981285;28;20137;-87
2022/06/17 06:31:34;;;;;;;40.17;12.10;;;17.70;99.90;;;;;;4998830;28;20060;-87
2022/06/17 06:34:00;;;;;;;23.67;10.48;;;17.70;99.90;;;;;;4984906;28;20041;-87
2022/06/17 06:36:26;;;;;;;16.98;8.90;;;17.70;99.90;;;;;;4983030;28;20044;-87
2022/06/17 06:38:51;;;;;;;14.02;8.10;;;17.80;99.90;;;;;;4998534;28;20328;-86
2022/06/17 06:41:21;;;;;;;9.70;7.63;;;17.70;99.90;;;;;;5016646;28;20386;-87
2022/06/17 06:43:50;;;;;;;11.40;7.38;;;17.70;99.90;;;;;;4988278;28;20050;-86
2022/06/17 06:46:17;;;;;;;9.23;7.43;;;17.80;99.90;;;;;;4991080;28;20081;-87
2022/06/17 06:48:42;;;;;;;11.25;6.90;;;17.90;99.90;;;;;;5029843;28;20076;-87
2022/06/17 06:51:08;;;;;;;14.00;8.15;;;17.90;99.90;;;;;;4996075;28;20050;-87
2022/06/17 06:53:34;;;;;;;9.50;7.38;;;18.00;99.90;;;;;;5028608;28;20038;-87
2022/06/17 06:55:59;;;;;;;13.05;8.13;;;18.10;99.90;;;;;;5013076;28;20046;-87
2022/06/17 06:58:25;;;;;;;10.75;7.22;;;18.30;99.90;;;;;;5033153;28;20050;-87
2022/06/17 07:00:55;;;;;;;12.63;7.80;;;18.40;99.90;;;;;;5015991;28;20053;-87
2022/06/17 07:03:21;;;;;;;8.02;7.10;;;18.70;99.90;;;;;;4998104;28;20133;-87
2022/06/17 07:05:52;;;;;;;8.63;7.28;;;19.00;99.90;;;;;;5030009;28;20403;-86
2022/06/17 07:08:19;;;;;;;11.02;7.38;;;19.10;99.90;;;;;;4996734;28;20060;-86
2022/06/17 07:10:46;;;;;;;10.48;7.65;;;19.30;99.90;;;;;;5026777;28;20046;-87
2022/06/17 07:13:12;;;;;;;9.68;7.07;;;19.50;99.90;;;;;;5023934;28;20172;-86
2022/06/17 07:15:39;;;;;;;8.77;6.90;;;19.50;99.90;;;;;;5008606;28;20114;-87
2022/06/17 07:18:14;;;;;;;8.48;6.93;;;19.80;99.90;;;;;;4975943;28;20050;-86
2022/06/17 07:20:43;;;;;;;10.43;7.03;;;20.00;99.90;;;;;;5008321;28;20046;-87
2022/06/17 07:23:11;;;;;;;10.82;7.13;;;20.10;99.90;;;;;;5026338;28;20076;-87
2022/06/17 07:25:36;;;;;;;9.00;7.47;;;20.30;99.90;;;;;;5025847;28;20049;-86
2022/06/17 07:28:03;;;;;;;8.98;6.90;;;20.30;99.90;;;;;;5026797;28;20077;-87
2022/06/17 07:30:29;;;;;;;13.23;6.93;;;20.30;99.90;;;;;;5025480;28;20041;-87
2022/06/17 07:32:54;;;;;;;8.25;6.85;;;20.60;99.90;;;;;;5009544;28;20042;-86
2022/06/17 07:35:20;;;;;;;8.82;6.97;;;20.70;99.90;;;;;;5006580;28;20064;-86
2022/06/17 07:40:31;;;;;;;9.27;7.13;;;21.00;99.90;;;;;;5017542;28;20046;-86
2022/06/17 07:42:57;;;;;;;7.70;6.47;;;20.70;99.90;;;;;;5012963;28;20046;-86
2022/06/17 07:45:24;;;;;;;10.60;7.43;;;20.80;99.90;;;;;;5013650;28;20081;-87
2022/06/17 07:47:50;;;;;;;8.73;6.95;;;20.90;99.90;;;;;;4980496;28;20133;-86
2022/06/17 07:50:24;;;;;;;6.90;6.20;;;21.30;99.90;;;;;;5013115;28;20132;-86
2022/06/17 07:52:49;;;;;;;11.00;6.40;;;22.10;99.90;;;;;;5014382;28;20478;-86
2022/06/17 07:55:15;;;;;;;7.38;6.13;;;23.00;99.90;;;;;;4982368;28;20046;-87
2022/06/17 07:57:42;;;;;;;9.38;5.95;;;23.90;99.90;;;;;;5014435;28;20164;-87
2022/06/17 08:00:11;;;;;;;8.45;5.97;;;23.90;99.90;;;;;;5014515;28;20394;-86
2022/06/17 08:02:36;;;;;;;7.18;5.82;;;24.20;99.90;;;;;;4981889;28;20061;-86
2022/06/17 08:05:02;;;;;;;11.18;6.13;;;24.60;99.90;;;;;;4982573;28;20042;-87
2022/06/17 08:07:28;;;;;;;7.00;6.05;;;25.10;99.90;;;;;;4981082;28;20064;-87
2022/06/17 08:09:54;;;;;;;5.95;5.38;;;24.90;99.90;;;;;;5030130;28;20042;-87
2022/06/17 08:12:20;;;;;;;9.13;5.75;;;24.40;99.90;;;;;;4980729;28;20359;-87
2022/06/17 08:14:46;;;;;;;10.45;5.97;;;24.40;99.90;;;;;;5015446;28;20049;-86
2022/06/17 08:17:12;;;;;;;5.45;4.90;;;24.30;99.90;;;;;;5032985;28;20064;-86
2022/06/17 08:19:39;;;;;;;7.00;4.78;;;24.20;99.90;;;;;;4983526;28;20046;-86
2022/06/17 08:22:05;;;;;;;6.28;4.60;;;24.40;99.90;;;;;;4967923;28;20057;-85
2022/06/17 08:24:30;;;;;;;6.63;4.80;;;24.00;99.90;;;;;;5000194;28;20046;-86
2022/06/17 08:26:56;;;;;;;6.95;4.95;;;24.00;99.90;;;;;;5016610;28;20073;-85
2022/06/17 08:29:22;;;;;;;6.78;4.78;;;24.00;99.90;;;;;;4999684;28;20088;-86
2022/06/17 08:31:48;;;;;;;5.50;4.68;;;24.20;99.90;;;;;;4983631;28;20054;-86
2022/06/17 08:34:13;;;;;;;6.53;5.03;;;24.60;99.90;;;;;;4983767;28;20049;-86
2022/06/17 08:36:39;;;;;;;7.82;4.25;;;25.40;99.90;;;;;;5016327;28;20049;-87
2022/06/17 08:39:07;;;;;;;5.22;4.55;;;26.00;99.90;;;;;;5016292;28;20045;-86
2022/06/17 08:41:34;;;;;;;6.68;4.65;;;26.90;99.90;;;;;;4984083;28;20132;-87
2022/06/17 08:44:18;;;;;;;7.38;4.40;;;27.00;99.90;;;;;;5000081;28;20064;-87
2022/06/17 08:46:50;;;;;;;5.72;5.05;;;26.50;99.90;;;;;;5017359;28;20099;-87
2022/06/17 08:49:43;;;;;;;8.70;4.78;;;26.70;99.90;;;;;;4983933;28;20046;-87
2022/06/17 08:52:17;;;;;;;6.00;4.60;;;26.10;99.90;;;;;;5016254;28;20050;-87
2022/06/17 08:55:11;;;;;;;7.22;4.93;;;26.00;99.90;;;;;;5016170;28;20046;-86
2022/06/17 08:57:55;;;;;;;;;;;26.00;99.90;;;;;;5016821;28;20049;-86
2022/06/17 09:00:25;;;;;;;10.82;5.03;;;25.80;99.90;;;;;;5033039;28;19922;-85
2022/06/17 09:02:59;;;;;;;8.05;4.30;;;25.70;99.90;;;;;;5016856;28;20477;-86
2022/06/17 09:05:40;;;;;;;7.65;4.45;;;25.60;99.90;;;;;;4983848;28;20099;-85
2022/06/17 09:08:18;;;;;;;13.20;5.00;;;25.20;99.90;;;;;;4999727;28;20137;-87
2022/06/17 09:10:59;;;;;;;5.88;3.83;;;25.10;99.90;;;;;;5017168;28;20085;-86
2022/06/17 09:13:49;;;;;;;7.15;4.18;;;25.10;99.90;;;;;;4984569;28;20370;-86
2022/06/17 09:16:42;;;;;;;6.50;3.97;;;24.90;99.90;;;;;;4969879;28;20052;-86
2022/06/17 09:19:08;;;;;;;9.73;3.90;;;24.90;99.90;;;;;;4999114;28;20501;-86
2022/06/17 09:22:03;;;;;;;5.75;4.50;;;24.80;99.90;;;;;;4983080;28;20049;-87
2022/06/17 09:24:43;;;;;;;6.68;4.20;;;24.60;99.90;;;;;;4996160;28;20145;-87
2022/06/17 09:27:16;;;;;;;6.68;4.10;;;24.80;99.90;;;;;;4967086;28;20494;-86
2022/06/17 09:30:01;;;;;;;5.15;3.90;;;24.90;99.90;;;;;;5017037;28;20065;-86
2022/06/17 09:32:41;;;;;;;6.15;3.90;;;24.70;99.90;;;;;;4982811;28;20050;-86
2022/06/17 09:35:24;;;;;;;5.30;3.95;;;24.90;99.90;;;;;;4968533;28;20077;-86
2022/06/17 09:37:52;;;;;;;;;;;24.70;99.90;;;;;;4999472;28;20088;-87
2022/06/17 09:40:31;;;;;;;11.05;5.35;;;24.70;99.90;;;;;;5015253;28;19971;-85
2022/06/17 09:43:05;;;;;;;7.68;5.30;;;24.50;99.90;;;;;;4967748;28;20064;-86
2022/06/17 09:45:58;;;;;;;7.88;5.30;;;24.50;99.90;;;;;;5015097;28;20057;-86
2022/06/17 09:48:49;;;;;;;7.03;5.35;;;24.50;99.90;;;;;;4990998;28;20062;-86
2022/06/17 09:51:20;;;;;;;7.20;4.90;;;24.80;99.90;;;;;;4984698;28;20077;-86
2022/06/17 09:54:02;;;;;;;7.32;5.07;;;25.00;99.90;;;;;;4999296;28;20176;-86
2022/06/17 09:56:45;;;;;;;7.53;5.13;;;25.10;99.90;;;;;;5015975;28;20057;-86
2022/06/17 09:59:16;;;;;;;;;;;25.50;99.90;;;;;;4999024;28;20128;-86
2022/06/17 10:01:42;;;;;;;8.27;4.93;;;25.90;99.90;;;;;;5015153;28;19975;-86
2022/06/17 10:04:09;;;;;;;7.93;4.40;;;26.10;99.90;;;;;;5014540;28;20088;-86
2022/06/17 10:06:37;;;;;;;5.88;4.47;;;26.30;99.90;;;;;;4982817;28;20089;-86
2022/06/17 10:09:14;;;;;;;8.15;4.10;;;26.10;99.90;;;;;;5014425;28;20077;-86
2022/06/17 10:11:48;;;;;;;6.47;3.78;;;26.00;99.90;;;;;;4981978;28;20394;-86
2022/06/17 10:14:44;;;;;;;6.25;3.15;;;25.80;99.90;;;;;;5015497;28;20184;-86
2022/06/17 10:20:42;;;;;;;10.00;3.70;;;25.80;99.90;;;;;;4997819;28;20104;-86
2022/06/17 10:23:35;;;;;;;6.85;3.38;;;25.50;99.90;;;;;;5015006;28;20050;-86
2022/06/17 10:26:20;;;;;;;7.30;3.60;;;25.40;99.90;;;;;;5013978;28;20108;-86
2022/06/17 10:29:12;;;;;;;5.95;3.50;;;25.30;99.90;;;;;;5015459;28;20062;-86
2022/06/17 10:31:45;;;;;;;6.50;3.33;;;25.40;99.90;;;;;;5013806;28;20050;-86
2022/06/17 10:34:31;;;;;;;5.30;3.30;;;25.30;99.90;;;;;;5014842;28;20426;-86
2022/06/17 10:36:59;;;;;;;5.53;3.30;;;25.10;99.90;;;;;;5016575;28;20452;-86
2022/06/17 10:39:26;;;;;;;7.80;3.47;;;25.10;99.90;;;;;;5013813;28;20448;-86
2022/06/17 10:41:52;;;;;;;8.10;3.67;;;25.10;99.90;;;;;;5013790;28;20050;-86
2022/06/17 10:44:19;;;;;;;8.48;3.97;;;25.10;99.90;;;;;;5013922;28;20071;-86
2022/06/17 10:47:36;;;;;;;5.90;3.17;;;24.80;99.90;;;;;;5013852;28;20112;-87
2022/06/17 10:50:17;;;;;;;6.47;3.42;;;24.70;99.90;;;;;;4980678;28;20061;-87
2022/06/17 10:52:49;;;;;;;8.45;3.40;;;24.70;99.90;;;;;;4997001;28;20551;-87
2022/06/17 10:55:20;;;;;;;8.75;3.97;;;24.80;99.90;;;;;;5014493;28;20137;-87
2022/06/17 10:58:08;;;;;;;8.15;3.65;;;24.80;99.90;;;;;;5014178;28;20042;-86
2022/06/17 11:00:36;;;;;;;3.95;3.38;;;24.90;99.90;;;;;;5013865;28;20046;-87
2022/06/17 11:03:15;;;;;;;5.55;3.53;;;25.10;99.90;;;;;;5013645;28;20049;-86
2022/06/17 11:05:41;;;;;;;7.03;4.00;;;25.50;99.90;;;;;;4981867;28;20049;-87
2022/06/17 11:08:20;;;;;;;7.30;4.30;;;25.70;99.90;;;;;;4981029;28;20445;-87
2022/06/17 11:10:55;;;;;;;7.78;3.80;;;25.90;99.90;;;;;;4966063;28;20111;-87
2022/06/17 11:13:21;;;;;;;8.10;3.85;;;26.00;99.90;;;;;;5014024;28;20050;-87
2022/06/17 11:15:53;;;;;;;7.85;3.50;;;26.30;99.90;;;;;;5014239;28;20120;-87
2022/06/17 11:18:30;;;;;;;4.80;3.83;;;26.60;99.90;;;;;;4980718;28;20042;-87
2022/06/17 11:21:00;;;;;;;6.13;4.22;;;26.80;99.90;;;;;;4965870;28;20046;-87
2022/06/17 11:23:28;;;;;;;13.40;4.70;;;27.10;99.90;;;;;;5013084;28;20042;-86
2022/06/17 11:26:21;;;;;;;10.15;4.28;;;26.90;99.90;;;;;;5013260;28;20109;-87
2022/06/17 11:28:47;;;;;;;9.00;4.38;;;26.70;99.90;;;;;;4991898;28;20058;-87
2022/06/17 11:31:19;;;;;;;5.82;3.75;;;26.80;99.90;;;;;;4985866;28;20056;-87
2022/06/17 11:33:54;;;;;;;7.03;3.90;;;26.80;99.90;;;;;;5019761;28;20454;-87
2022/06/17 11:36:27;;;;;;;4.60;3.65;;;26.70;99.90;;;;;;4983708;28;20430;-87
2022/06/17 11:38:52;;;;;;;8.10;3.90;;;26.70;99.90;;;;;;4984648;28;20067;-86
2022/06/17 11:41:19;;;;;;;6.65;4.03;;;26.80;99.90;;;;;;5016653;28;20046;-86
2022/06/17 11:43:45;;;;;;;14.40;4.93;;;26.80;99.90;;;;;;5013059;28;20525;-86
2022/06/17 11:46:11;;;;;;;6.55;4.03;;;26.80;99.90;;;;;;4980557;28;20085;-86
2022/06/17 11:48:41;;;;;;;6.55;3.92;;;26.70;99.90;;;;;;4966031;28;20042;-87
2022/06/17 11:51:12;;;;;;;7.60;4.40;;;26.80;99.90;;;;;;4984527;28;20046;-87
2022/06/17 11:53:48;;;;;;;7.15;3.50;;;26.60;99.90;;;;;;5023575;28;20131;-87
2022/06/17 11:56:30;;;;;;;6.63;3.83;;;26.90;99.90;;;;;;4989239;28;20506;-87
2022/06/17 11:58:59;;;;;;;5.00;3.30;;;27.30;99.90;;;;;;4995637;28;20045;-88
2022/06/17 12:01:24;;;;;;;5.30;3.30;;;27.20;99.90;;;;;;4993989;28;20041;-86
2022/06/17 12:03:50;;;;;;;4.78;3.38;;;27.80;99.90;;;;;;4986930;28;20038;-87
2022/06/17 12:06:27;;;;;;;4.90;4.18;;;28.10;99.80;;;;;;5016723;28;20100;-87
2022/06/17 12:09:08;;;;;;;5.75;3.45;;;28.00;99.70;;;;;;5002107;28;20140;-87
2022/06/17 12:11:48;;;;;;;6.20;3.70;;;28.10;99.30;;;;;;4968627;28;20050;-85
2022/06/17 12:14:20;;;;;;;6.78;3.30;;;28.00;99.00;;;;;;5000114;28;20154;-87
2022/06/17 12:16:46;;;;;;;5.95;4.05;;;27.80;99.10;;;;;;5000725;28;20057;-87
2022/06/17 12:19:18;;;;;;;7.85;3.72;;;27.90;98.80;;;;;;4983542;28;20055;-86
2022/06/17 12:22:06;;;;;;;5.57;3.20;;;27.70;98.90;;;;;;5016806;28;20133;-87
2022/06/17 12:25:06;;;;;;;5.05;3.40;;;27.80;99.90;;;;;;4984895;28;20358;-86
2022/06/17 12:27:36;;;;;;;5.07;3.45;;;28.00;99.90;;;;;;4986405;28;20108;-86
2022/06/17 12:30:05;;;;;;;5.57;3.72;;;28.10;99.10;;;;;;4984589;28;20128;-87
2022/06/17 12:32:43;;;;;;;3.97;3.40;;;28.00;98.60;;;;;;5000296;28;20086;-86
2022/06/17 12:35:22;;;;;;;6.30;4.05;;;28.00;98.70;;;;;;4985136;28;20057;-86
2022/06/17 12:38:02;;;;;;;8.05;3.97;;;27.90;98.50;;;;;;4984594;28;20042;-87
2022/06/17 12:40:33;;;;;;;5.93;3.80;;;28.20;99.10;;;;;;4983742;28;20394;-87
2022/06/17 12:43:23;;;;;;;6.95;3.30;;;28.10;98.10;;;;;;5000645;28;20093;-87
2022/06/17 12:45:59;;;;;;;13.80;3.88;;;28.20;98.30;;;;;;4999860;28;20046;-87
2022/06/17 12:48:37;;;;;;;5.53;4.05;;;28.50;99.20;;;;;;4999990;28;20485;-87
2022/06/17 12:54:43;;;;;;;8.13;3.50;;;28.40;98.30;;;;;;5019245;28;20390;-87
2022/06/17 12:57:18;;;;;;;7.20;3.80;;;28.40;98.60;;;;;;5000047;28;20410;-87
2022/06/17 13:00:04;;;;;;;12.43;4.35;;;28.30;98.30;;;;;;5015589;28;20045;-87
2022/06/17 13:02:44;;;;;;;3.40;2.95;;;28.30;98.30;;;;;;4999649;28;20382;-88
2022/06/17 13:05:23;;;;;;;5.75;3.22;;;28.50;99.00;;;;;;4983759;28;20052;-87
2022/06/17 13:08:06;;;;;;;4.70;3.08;;;27.90;98.80;;;;;;5017646;28;20057;-87
2022/06/17 13:10:49;;;;;;;7.82;3.03;;;28.30;99.10;;;;;;5016229;28;20054;-88
2022/06/17 13:13:32;;;;;;;4.75;3.10;;;28.40;99.40;;;;;;4983509;28;20104;-87
2022/06/17 13:16:13;;;;;;;7.72;3.28;;;28.50;98.50;;;;;;4999341;28;20057;-87
2022/06/17 13:18:57;;;;;;;6.22;3.58;;;28.10;98.20;;;;;;4983664;28;20045;-87
2022/06/17 13:21:33;;;;;;;8.02;3.05;;;28.20;98.00;;;;;;4998790;28;20077;-87